sensor_id;sensor_type;location;lat;lon;timestamp;temperature;humidity
14097;DHT22;7125;48.106;11.544;2022-08-19T00:00:17;17.50;99.90
14097;DHT22;7125;48.106;11.544;2022-08-19T00:02:44;17.50;99.90
14097;DHT22;7125;48.106;11.544;2022-08-19T00:05:14;17.50;99.90
14097;DHT22;7125;48.106;11.544;2022-08-19T00:07:41;17.60;99.90
14097;DHT22;7125;48.106;11.544;2022-08-19T00:10:12;17.60;99.90
14097;DHT22;7125;48.106;11.544;2022-08-19T00:12:40;17.60;99.90
14097;DHT22;7125;48.106;11.544;2022-08-19T00:15:10;17.60;99.90
14097;DHT22;7125;48.106;11.544;2022-08-19T00:17:38;17.60;99.90
14097;DHT22;7125;48.106;11.544;2022-08-19T00:20:06;17.60;99.90
14097;DHT22;7125;48.106;11.544;2022-08-19T00:22:34;17.60;99.90
14097;DHT22;7125;48.106;11.544;2022-08-19T00:25:00;17.60;99.90
14097;DHT22;7125;48.106;11.544;2022-08-19T00:27:29;17.60;99.90
14097;DHT22;7125;48.106;11.544;2022-08-19T00:29:55;17.60;99.90
14097;DHT22;7125;48.106;11.544;2022-08-19T00:32:24;17.50;99.90
14097;DHT22;7125;48.106;11.544;2022-08-19T00:34:51;17.50;99.90
14097;DHT22;7125;48.106;11.544;2022-08-19T00:37:19;17.50;99.90
14097;DHT22;7125;48.106;11.544;2022-08-19T00:39:48;17.50;99.90
14097;DHT22;7125;48.106;11.544;2022-08-19T00:42:16;17.60;99.90
14097;DHT22;7125;48.106;11.544;2022-08-19T00:44:46;17.50;99.90
14097;DHT22;7125;48.106;11.544;2022-08-19T00:47:14;17.50;99.90
14097;DHT22;7125;48.106;11.544;2022-08-19T00:49:43;17.50;99.90
14097;DHT22;7125;48.106;11.544;2022-08-19T00:52:19;17.60;99.90
14097;DHT22;7125;48.106;11.544;2022-08-19T00:54:47;17.50;99.90
14097;DHT22;7125;48.106;11.544;2022-08-19T00:57:17;17.50;99.90
14097;DHT22;7125;48.106;11.544;2022-08-19T00:59:47;17.50;99.90
14097;DHT22;7125;48.106;11.544;2022-08-19T01:02:18;17.60;99.90
14097;DHT22;7125;48.106;11.544;2022-08-19T01:04:45;17.60;99.90
14097;DHT22;7125;48.106;11.544;2022-08-19T01:07:12;17.50;99.90
14097;DHT22;7125;48.106;11.544;2022-08-19T01:09:39;17.50;99.90
14097;DHT22;7125;48.106;11.544;2022-08-19T01:12:06;17.50;99.90
14097;DHT22;7125;48.106;11.544;2022-08-19T01:14:33;17.50;99.90
14097;DHT22;7125;48.106;11.544;2022-08-19T01:17:02;17.50;99.90
14097;DHT22;7125;48.106;11.544;2022-08-19T01:19:31;17.50;99.90
14097;DHT22;7125;48.106;11.544;2022-08-19T01:22:02;17.50;99.90
14097;DHT22;7125;48.106;11.544;2022-08-19T01:24:31;17.40;99.90
14097;DHT22;7125;48.106;11.544;2022-08-19T01:26:58;17.50;99.90
14097;DHT22;7125;48.106;11.544;2022-08-19T01:29:25;17.50;99.90
14097;DHT22;7125;48.106;11.544;2022-08-19T01:31:52;17.50;99.90
14097;DHT22;7125;48.106;11.544;2022-08-19T01:34:19;17.50;99.90
14097;DHT22;7125;48.106;11.544;2022-08-19T01:36:47;17.50;99.90
14097;DHT22;7125;48.106;11.544;2022-08-19T01:39:17;17.50;99.90
14097;DHT22;7125;48.106;11.544;2022-08-19T01:41:46;17.50;99.90
14097;DHT22;7125;48.106;11.544;2022-08-19T01:44:13;17.50;99.90
14097;DHT22;7125;48.106;11.544;2022-08-19T01:46:42;17.50;99.90
14097;DHT22;7125;48.106;11.544;2022-08-19T01:49:09;17.50;99.90
14097;DHT22;7125;48.106;11.544;2022-08-19T01:51:37;17.60;99.90
14097;DHT22;7125;48.106;11.544;2022-08-19T01:54:04;17.60;99.90
14097;DHT22;7125;48.106;11.544;2022-08-19T01:56:31;17.60;99.90
14097;DHT22;7125;48.106;11.544;2022-08-19T01:59:03;17.60;99.90
14097;DHT22;7125;48.106;11.544;2022-08-19T02:01:31;17.60;99.90
14097;DHT22;7125;48.106;11.544;2022-08-19T02:03:58;17.60;99.90
14097;DHT22;7125;48.106;11.544;2022-08-19T02:06:26;17.50;99.90
14097;DHT22;7125;48.106;11.544;2022-08-19T02:08:53;17.60;99.90
14097;DHT22;7125;48.106;11.544;2022-08-19T02:11:22;17.50;99.90
14097;DHT22;7125;48.106;11.544;2022-08-19T02:13:49;17.50;99.90
14097;DHT22;7125;48.106;11.544;2022-08-19T02:16:18;17.50;99.90
14097;DHT22;7125;48.106;11.544;2022-08-19T02:18:46;17.50;99.90
14097;DHT22;7125;48.106;11.544;2022-08-19T02:21:14;17.50;99.90
14097;DHT22;7125;48.106;11.544;2022-08-19T02:23:41;17.40;99.90
14097;DHT22;7125;48.106;11.544;2022-08-19T02:26:08;17.50;99.90
14097;DHT22;7125;48.106;11.544;2022-08-19T02:28:35;17.50;99.90
14097;DHT22;7125;48.106;11.544;2022-08-19T02:31:02;17.50;99.90
14097;DHT22;7125;48.106;11.544;2022-08-19T02:33:30;17.50;99.90
14097;DHT22;7125;48.106;11.544;2022-08-19T02:35:57;17.50;99.90
14097;DHT22;7125;48.106;11.544;2022-08-19T02:38:23;17.50;99.90
14097;DHT22;7125;48.106;11.544;2022-08-19T02:40:54;17.50;99.90
14097;DHT22;7125;48.106;11.544;2022-08-19T02:43:22;17.50;99.90
14097;DHT22;7125;48.106;11.544;2022-08-19T02:45:49;17.50;99.90
14097;DHT22;7125;48.106;11.544;2022-08-19T02:48:17;17.40;99.90
14097;DHT22;7125;48.106;11.544;2022-08-19T02:50:46;17.40;99.90
14097;DHT22;7125;48.106;11.544;2022-08-19T02:53:13;17.40;99.90
14097;DHT22;7125;48.106;11.544;2022-08-19T02:55:45;17.40;99.90
14097;DHT22;7125;48.106;11.544;2022-08-19T02:58:12;17.30;99.90
14097;DHT22;7125;48.106;11.544;2022-08-19T03:00:44;17.30;99.90
14097;DHT22;7125;48.106;11.544;2022-08-19T03:03:11;17.30;99.90
14097;DHT22;7125;48.106;11.544;2022-08-19T03:05:38;17.30;99.90
14097;DHT22;7125;48.106;11.544;2022-08-19T03:08:07;17.30;99.90
14097;DHT22;7125;48.106;11.544;2022-08-19T03:10:40;17.30;99.90
14097;DHT22;7125;48.106;11.544;2022-08-19T03:13:10;17.30;99.90
14097;DHT22;7125;48.106;11.544;2022-08-19T03:15:40;17.30;99.90
14097;DHT22;7125;48.106;11.544;2022-08-19T03:18:07;17.30;99.90
14097;DHT22;7125;48.106;11.544;2022-08-19T03:20:34;17.30;99.90
14097;DHT22;7125;48.106;11.544;2022-08-19T03:23:07;17.30;99.90
14097;DHT22;7125;48.106;11.544;2022-08-19T03:25:37;17.30;99.90
14097;DHT22;7125;48.106;11.544;2022-08-19T03:28:04;17.30;99.90
14097;DHT22;7125;48.106;11.544;2022-08-19T03:30:31;17.30;99.90
14097;DHT22;7125;48.106;11.544;2022-08-19T03:32:58;17.30;99.90
14097;DHT22;7125;48.106;11.544;2022-08-19T03:35:25;17.30;99.90
14097;DHT22;7125;48.106;11.544;2022-08-19T03:37:51;17.40;99.90
14097;DHT22;7125;48.106;11.544;2022-08-19T03:40:20;17.40;99.90
14097;DHT22;7125;48.106;11.544;2022-08-19T03:42:47;17.40;99.90
14097;DHT22;7125;48.106;11.544;2022-08-19T03:45:14;17.30;99.90
14097;DHT22;7125;48.106;11.544;2022-08-19T03:47:41;17.40;99.90
14097;DHT22;7125;48.106;11.544;2022-08-19T03:50:08;17.30;99.90
14097;DHT22;7125;48.106;11.544;2022-08-19T03:52:36;17.30;99.90
14097;DHT22;7125;48.106;11.544;2022-08-19T03:55:03;17.40;99.90
14097;DHT22;7125;48.106;11.544;2022-08-19T03:57:33;17.30;99.90
14097;DHT22;7125;48.106;11.544;2022-08-19T04:00:00;17.40;99.90
14097;DHT22;7125;48.106;11.544;2022-08-19T04:02:27;17.40;99.90
14097;DHT22;7125;48.106;11.544;2022-08-19T04:04:54;17.30;99.90
14097;DHT22;7125;48.106;11.544;2022-08-19T04:07:21;17.40;99.90
14097;DHT22;7125;48.106;11.544;2022-08-19T04:09:48;17.40;99.90
14097;DHT22;7125;48.106;11.544;2022-08-19T04:12:17;17.40;99.90
14097;DHT22;7125;48.106;11.544;2022-08-19T04:14:47;17.40;99.90
14097;DHT22;7125;48.106;11.544;2022-08-19T04:17:13;17.30;99.90
14097;DHT22;7125;48.106;11.544;2022-08-19T04:19:40;17.40;99.90
14097;DHT22;7125;48.106;11.544;2022-08-19T04:22:08;17.40;99.90
14097;DHT22;7125;48.106;11.544;2022-08-19T04:24:37;17.40;99.90
14097;DHT22;7125;48.106;11.544;2022-08-19T04:27:04;17.40;99.90
14097;DHT22;7125;48.106;11.544;2022-08-19T04:29:32;17.40;99.90
14097;DHT22;7125;48.106;11.544;2022-08-19T04:32:01;17.40;99.90
14097;DHT22;7125;48.106;11.544;2022-08-19T04:34:28;17.40;99.90
14097;DHT22;7125;48.106;11.544;2022-08-19T04:36:57;17.40;99.90
14097;DHT22;7125;48.106;11.544;2022-08-19T04:39:26;17.50;99.90
14097;DHT22;7125;48.106;11.544;2022-08-19T04:42:14;17.50;99.90
14097;DHT22;7125;48.106;11.544;2022-08-19T04:44:59;17.50;99.90
14097;DHT22;7125;48.106;11.544;2022-08-19T04:47:27;17.50;99.90
14097;DHT22;7125;48.106;11.544;2022-08-19T04:49:54;17.50;99.90
14097;DHT22;7125;48.106;11.544;2022-08-19T04:52:21;17.50;99.90
14097;DHT22;7125;48.106;11.544;2022-08-19T04:54:48;17.40;99.90
14097;DHT22;7125;48.106;11.544;2022-08-19T04:57:15;17.50;99.90
14097;DHT22;7125;48.106;11.544;2022-08-19T04:59:42;17.50;99.90
14097;DHT22;7125;48.106;11.544;2022-08-19T05:02:09;17.50;99.90
14097;DHT22;7125;48.106;11.544;2022-08-19T05:04:37;17.50;99.90
14097;DHT22;7125;48.106;11.544;2022-08-19T05:07:05;17.50;99.90
14097;DHT22;7125;48.106;11.544;2022-08-19T05:09:32;17.60;99.90
14097;DHT22;7125;48.106;11.544;2022-08-19T05:11:58;17.60;99.90
14097;DHT22;7125;48.106;11.544;2022-08-19T05:14:25;17.50;99.90
14097;DHT22;7125;48.106;11.544;2022-08-19T05:16:52;17.50;99.90
14097;DHT22;7125;48.106;11.544;2022-08-19T05:19:19;17.50;99.90
14097;DHT22;7125;48.106;11.544;2022-08-19T05:22:05;17.50;99.90
14097;DHT22;7125;48.106;11.544;2022-08-19T05:24:49;17.50;99.90
14097;DHT22;7125;48.106;11.544;2022-08-19T05:27:16;17.50;99.90
14097;DHT22;7125;48.106;11.544;2022-08-19T05:29:43;17.50;99.90
14097;DHT22;7125;48.106;11.544;2022-08-19T05:32:09;17.50;99.90
14097;DHT22;7125;48.106;11.544;2022-08-19T05:34:36;17.50;99.90
14097;DHT22;7125;48.106;11.544;2022-08-19T05:37:06;17.50;99.90
14097;DHT22;7125;48.106;11.544;2022-08-19T05:39:35;17.50;99.90
14097;DHT22;7125;48.106;11.544;2022-08-19T05:42:04;17.50;99.90
14097;DHT22;7125;48.106;11.544;2022-08-19T05:44:34;17.50;99.90
14097;DHT22;7125;48.106;11.544;2022-08-19T05:47:04;17.50;99.90
14097;DHT22;7125;48.106;11.544;2022-08-19T05:49:33;17.50;99.90
14097;DHT22;7125;48.106;11.544;2022-08-19T05:52:02;17.60;99.90
14097;DHT22;7125;48.106;11.544;2022-08-19T05:54:31;17.60;99.90
14097;DHT22;7125;48.106;11.544;2022-08-19T05:56:58;17.60;99.90
14097;DHT22;7125;48.106;11.544;2022-08-19T05:59:26;17.60;99.90
14097;DHT22;7125;48.106;11.544;2022-08-19T06:01:53;17.60;99.90
14097;DHT22;7125;48.106;11.544;2022-08-19T06:04:23;17.60;99.90
14097;DHT22;7125;48.106;11.544;2022-08-19T06:06:52;17.60;99.90
14097;DHT22;7125;48.106;11.544;2022-08-19T06:09:20;17.60;99.90
14097;DHT22;7125;48.106;11.544;2022-08-19T06:11:50;17.70;99.90
14097;DHT22;7125;48.106;11.544;2022-08-19T06:14:20;17.60;99.90
14097;DHT22;7125;48.106;11.544;2022-08-19T06:16:48;17.60;99.90
14097;DHT22;7125;48.106;11.544;2022-08-19T06:19:17;17.60;99.90
14097;DHT22;7125;48.106;11.544;2022-08-19T06:21:46;17.60;99.90
14097;DHT22;7125;48.106;11.544;2022-08-19T06:24:16;17.60;99.90
14097;DHT22;7125;48.106;11.544;2022-08-19T06:26:44;17.60;99.90
14097;DHT22;7125;48.106;11.544;2022-08-19T06:29:14;17.60;99.90
14097;DHT22;7125;48.106;11.544;2022-08-19T06:31:43;17.60;99.90
14097;DHT22;7125;48.106;11.544;2022-08-19T06:34:10;17.60;99.90
14097;DHT22;7125;48.106;11.544;2022-08-19T06:36:41;17.60;99.90
14097;DHT22;7125;48.106;11.544;2022-08-19T06:39:11;17.60;99.90
14097;DHT22;7125;48.106;11.544;2022-08-19T06:41:40;17.60;99.90
14097;DHT22;7125;48.106;11.544;2022-08-19T06:44:15;17.60;99.90
14097;DHT22;7125;48.106;11.544;2022-08-19T06:46:42;17.60;99.90
14097;DHT22;7125;48.106;11.544;2022-08-19T06:49:09;17.60;99.90
14097;DHT22;7125;48.106;11.544;2022-08-19T06:51:40;17.60;99.90
14097;DHT22;7125;48.106;11.544;2022-08-19T06:54:09;17.70;99.90
14097;DHT22;7125;48.106;11.544;2022-08-19T06:56:37;17.70;99.90
14097;DHT22;7125;48.106;11.544;2022-08-19T06:59:07;17.70;99.90
14097;DHT22;7125;48.106;11.544;2022-08-19T07:01:36;17.70;99.90
14097;DHT22;7125;48.106;11.544;2022-08-19T07:04:04;17.70;99.90
14097;DHT22;7125;48.106;11.544;2022-08-19T07:06:31;17.70;99.90
14097;DHT22;7125;48.106;11.544;2022-08-19T07:08:58;17.80;99.90
14097;DHT22;7125;48.106;11.544;2022-08-19T07:11:26;17.80;99.90
14097;DHT22;7125;48.106;11.544;2022-08-19T07:13:53;17.80;99.90
14097;DHT22;7125;48.106;11.544;2022-08-19T07:16:21;17.80;99.90
14097;DHT22;7125;48.106;11.544;2022-08-19T07:18:50;17.80;99.90
14097;DHT22;7125;48.106;11.544;2022-08-19T07:21:20;17.80;99.90
14097;DHT22;7125;48.106;11.544;2022-08-19T07:23:48;17.70;99.90
14097;DHT22;7125;48.106;11.544;2022-08-19T07:26:18;17.70;99.90
14097;DHT22;7125;48.106;11.544;2022-08-19T07:28:46;17.70;99.90
14097;DHT22;7125;48.106;11.544;2022-08-19T07:31:15;17.80;99.90
14097;DHT22;7125;48.106;11.544;2022-08-19T07:33:44;17.80;99.90
14097;DHT22;7125;48.106;11.544;2022-08-19T07:36:15;17.80;99.90
14097;DHT22;7125;48.106;11.544;2022-08-19T07:38:44;17.80;99.90
14097;DHT22;7125;48.106;11.544;2022-08-19T07:41:17;17.90;99.90
14097;DHT22;7125;48.106;11.544;2022-08-19T07:43:44;17.90;99.90
14097;DHT22;7125;48.106;11.544;2022-08-19T07:46:12;17.90;99.90
14097;DHT22;7125;48.106;11.544;2022-08-19T07:48:41;17.90;99.90
14097;DHT22;7125;48.106;11.544;2022-08-19T07:51:10;18.00;99.90
14097;DHT22;7125;48.106;11.544;2022-08-19T07:53:38;18.00;99.90
14097;DHT22;7125;48.106;11.544;2022-08-19T07:56:05;18.10;99.90
14097;DHT22;7125;48.106;11.544;2022-08-19T07:58:36;18.10;99.90
14097;DHT22;7125;48.106;11.544;2022-08-19T08:01:06;18.10;99.90
14097;DHT22;7125;48.106;11.544;2022-08-19T08:03:33;18.10;99.90
14097;DHT22;7125;48.106;11.544;2022-08-19T08:06:18;18.10;99.90
14097;DHT22;7125;48.106;11.544;2022-08-19T08:09:06;18.10;99.90
14097;DHT22;7125;48.106;11.544;2022-08-19T08:11:45;18.10;99.90
14097;DHT22;7125;48.106;11.544;2022-08-19T08:14:15;18.10;99.90
14097;DHT22;7125;48.106;11.544;2022-08-19T08:16:43;18.10;99.90
14097;DHT22;7125;48.106;11.544;2022-08-19T08:19:12;18.10;99.90
14097;DHT22;7125;48.106;11.544;2022-08-19T08:21:40;18.00;99.90
14097;DHT22;7125;48.106;11.544;2022-08-19T08:24:09;18.00;99.90
14097;DHT22;7125;48.106;11.544;2022-08-19T08:26:36;18.10;99.90
14097;DHT22;7125;48.106;11.544;2022-08-19T08:29:04;18.00;99.90
14097;DHT22;7125;48.106;11.544;2022-08-19T08:31:33;18.00;99.90
14097;DHT22;7125;48.106;11.544;2022-08-19T08:34:00;18.00;99.90
14097;DHT22;7125;48.106;11.544;2022-08-19T08:36:27;18.00;99.90
14097;DHT22;7125;48.106;11.544;2022-08-19T08:38:54;18.00;99.90
14097;DHT22;7125;48.106;11.544;2022-08-19T08:41:29;18.00;99.90
14097;DHT22;7125;48.106;11.544;2022-08-19T08:43:57;17.90;99.90
14097;DHT22;7125;48.106;11.544;2022-08-19T08:46:28;18.00;99.90
14097;DHT22;7125;48.106;11.544;2022-08-19T08:49:01;18.00;99.90
14097;DHT22;7125;48.106;11.544;2022-08-19T08:51:34;18.00;99.90
14097;DHT22;7125;48.106;11.544;2022-08-19T08:54:03;18.00;99.90
14097;DHT22;7125;48.106;11.544;2022-08-19T08:56:33;17.90;99.90
14097;DHT22;7125;48.106;11.544;2022-08-19T08:59:04;18.00;99.90
14097;DHT22;7125;48.106;11.544;2022-08-19T09:01:33;17.90;99.90
14097;DHT22;7125;48.106;11.544;2022-08-19T09:04:03;18.00;99.90
14097;DHT22;7125;48.106;11.544;2022-08-19T09:06:36;18.00;99.90
14097;DHT22;7125;48.106;11.544;2022-08-19T09:09:13;18.00;99.90
14097;DHT22;7125;48.106;11.544;2022-08-19T09:11:54;18.00;99.90
14097;DHT22;7125;48.106;11.544;2022-08-19T09:14:32;17.90;99.90
14097;DHT22;7125;48.106;11.544;2022-08-19T09:16:59;18.00;99.90
14097;DHT22;7125;48.106;11.544;2022-08-19T09:19:51;18.00;99.90
14097;DHT22;7125;48.106;11.544;2022-08-19T09:22:18;18.00;99.90
14097;DHT22;7125;48.106;11.544;2022-08-19T09:24:47;18.00;99.90
14097;DHT22;7125;48.106;11.544;2022-08-19T09:27:14;17.90;99.90
14097;DHT22;7125;48.106;11.544;2022-08-19T09:29:42;18.00;99.90
14097;DHT22;7125;48.106;11.544;2022-08-19T09:32:08;18.00;99.90
14097;DHT22;7125;48.106;11.544;2022-08-19T09:34:37;18.00;99.90
14097;DHT22;7125;48.106;11.544;2022-08-19T09:37:03;18.00;99.90
14097;DHT22;7125;48.106;11.544;2022-08-19T09:39:31;18.00;99.90
14097;DHT22;7125;48.106;11.544;2022-08-19T09:41:57;18.00;99.90
14097;DHT22;7125;48.106;11.544;2022-08-19T09:44:24;18.10;99.90
14097;DHT22;7125;48.106;11.544;2022-08-19T09:46:51;18.10;99.90
14097;DHT22;7125;48.106;11.544;2022-08-19T09:49:19;18.00;99.90
14097;DHT22;7125;48.106;11.544;2022-08-19T09:51:51;18.00;99.90
14097;DHT22;7125;48.106;11.544;2022-08-19T09:54:21;18.00;99.90
14097;DHT22;7125;48.106;11.544;2022-08-19T09:56:48;18.10;99.90
14097;DHT22;7125;48.106;11.544;2022-08-19T09:59:15;18.10;99.90
14097;DHT22;7125;48.106;11.544;2022-08-19T10:01:42;18.10;99.90
14097;DHT22;7125;48.106;11.544;2022-08-19T10:04:09;18.20;99.90
14097;DHT22;7125;48.106;11.544;2022-08-19T10:06:38;18.20;99.90
14097;DHT22;7125;48.106;11.544;2022-08-19T10:09:07;18.10;99.90
14097;DHT22;7125;48.106;11.544;2022-08-19T10:11:36;18.20;99.90
14097;DHT22;7125;48.106;11.544;2022-08-19T10:14:06;18.20;99.90
14097;DHT22;7125;48.106;11.544;2022-08-19T10:16:33;18.20;99.90
14097;DHT22;7125;48.106;11.544;2022-08-19T10:19:02;18.20;99.90
14097;DHT22;7125;48.106;11.544;2022-08-19T10:21:31;18.30;99.90
14097;DHT22;7125;48.106;11.544;2022-08-19T10:24:00;18.30;99.90
14097;DHT22;7125;48.106;11.544;2022-08-19T10:26:32;18.40;99.90
14097;DHT22;7125;48.106;11.544;2022-08-19T10:29:00;18.50;99.90
14097;DHT22;7125;48.106;11.544;2022-08-19T10:31:28;18.60;99.90
14097;DHT22;7125;48.106;11.544;2022-08-19T10:33:56;18.60;99.90
14097;DHT22;7125;48.106;11.544;2022-08-19T10:36:26;18.70;99.90
14097;DHT22;7125;48.106;11.544;2022-08-19T10:38:55;18.70;99.90
14097;DHT22;7125;48.106;11.544;2022-08-19T10:41:25;18.60;99.90
14097;DHT22;7125;48.106;11.544;2022-08-19T10:43:55;18.60;99.90
14097;DHT22;7125;48.106;11.544;2022-08-19T10:46:26;18.70;99.90
14097;DHT22;7125;48.106;11.544;2022-08-19T10:48:54;18.70;99.90
14097;DHT22;7125;48.106;11.544;2022-08-19T10:51:21;18.80;99.90
14097;DHT22;7125;48.106;11.544;2022-08-19T10:54:06;18.90;99.90
14097;DHT22;7125;48.106;11.544;2022-08-19T10:56:33;19.00;99.90
14097;DHT22;7125;48.106;11.544;2022-08-19T10:59:21;19.20;99.90
14097;DHT22;7125;48.106;11.544;2022-08-19T11:01:49;19.20;99.90
14097;DHT22;7125;48.106;11.544;2022-08-19T11:04:17;19.20;99.90
14097;DHT22;7125;48.106;11.544;2022-08-19T11:06:45;19.20;99.90
14097;DHT22;7125;48.106;11.544;2022-08-19T11:09:13;19.20;99.90
14097;DHT22;7125;48.106;11.544;2022-08-19T11:11:41;19.10;99.90
14097;DHT22;7125;48.106;11.544;2022-08-19T11:14:10;19.10;99.90
14097;DHT22;7125;48.106;11.544;2022-08-19T11:16:38;19.00;99.90
14097;DHT22;7125;48.106;11.544;2022-08-19T11:19:07;19.00;99.90
14097;DHT22;7125;48.106;11.544;2022-08-19T11:21:36;19.10;99.90
14097;DHT22;7125;48.106;11.544;2022-08-19T11:24:06;19.00;99.90
14097;DHT22;7125;48.106;11.544;2022-08-19T11:26:35;19.00;99.90
14097;DHT22;7125;48.106;11.544;2022-08-19T11:29:03;19.00;99.90
14097;DHT22;7125;48.106;11.544;2022-08-19T11:31:33;19.00;99.90
14097;DHT22;7125;48.106;11.544;2022-08-19T11:34:04;19.00;99.90
14097;DHT22;7125;48.106;11.544;2022-08-19T11:36:33;19.00;99.90
14097;DHT22;7125;48.106;11.544;2022-08-19T11:39:00;18.90;99.90
14097;DHT22;7125;48.106;11.544;2022-08-19T11:41:27;18.80;99.90
14097;DHT22;7125;48.106;11.544;2022-08-19T11:43:54;18.80;99.90
14097;DHT22;7125;48.106;11.544;2022-08-19T11:46:23;18.70;99.90
14097;DHT22;7125;48.106;11.544;2022-08-19T11:48:50;18.80;99.90
14097;DHT22;7125;48.106;11.544;2022-08-19T11:51:21;18.80;99.90
14097;DHT22;7125;48.106;11.544;2022-08-19T11:53:50;18.70;99.90
14097;DHT22;7125;48.106;11.544;2022-08-19T11:56:17;18.80;99.90
14097;DHT22;7125;48.106;11.544;2022-08-19T11:58:45;18.80;99.90
14097;DHT22;7125;48.106;11.544;2022-08-19T12:01:14;18.80;99.90
14097;DHT22;7125;48.106;11.544;2022-08-19T12:03:42;18.70;99.90
14097;DHT22;7125;48.106;11.544;2022-08-19T12:06:14;18.80;99.90
14097;DHT22;7125;48.106;11.544;2022-08-19T12:08:42;18.80;99.90
14097;DHT22;7125;48.106;11.544;2022-08-19T12:11:10;18.80;99.90
14097;DHT22;7125;48.106;11.544;2022-08-19T12:13:38;18.80;99.90
14097;DHT22;7125;48.106;11.544;2022-08-19T12:16:08;18.90;99.90
14097;DHT22;7125;48.106;11.544;2022-08-19T12:18:36;18.90;99.90
14097;DHT22;7125;48.106;11.544;2022-08-19T12:21:05;18.90;99.90
14097;DHT22;7125;48.106;11.544;2022-08-19T12:23:31;18.80;99.90
14097;DHT22;7125;48.106;11.544;2022-08-19T12:26:00;18.90;99.90
14097;DHT22;7125;48.106;11.544;2022-08-19T12:28:27;18.90;99.90
14097;DHT22;7125;48.106;11.544;2022-08-19T12:30:56;18.90;99.90
14097;DHT22;7125;48.106;11.544;2022-08-19T12:33:23;18.90;99.90
14097;DHT22;7125;48.106;11.544;2022-08-19T12:35:53;18.90;99.90
14097;DHT22;7125;48.106;11.544;2022-08-19T12:38:20;18.90;99.90
14097;DHT22;7125;48.106;11.544;2022-08-19T12:40:49;18.90;99.90
14097;DHT22;7125;48.106;11.544;2022-08-19T12:43:18;18.90;99.90
14097;DHT22;7125;48.106;11.544;2022-08-19T12:45:46;18.90;99.90
14097;DHT22;7125;48.106;11.544;2022-08-19T12:48:13;19.00;99.90
14097;DHT22;7125;48.106;11.544;2022-08-19T12:53:14;19.00;99.90
14097;DHT22;7125;48.106;11.544;2022-08-19T12:55:41;19.00;99.90
14097;DHT22;7125;48.106;11.544;2022-08-19T12:58:09;19.10;99.90
14097;DHT22;7125;48.106;11.544;2022-08-19T13:00:37;19.20;99.90
14097;DHT22;7125;48.106;11.544;2022-08-19T13:03:04;19.30;99.90
14097;DHT22;7125;48.106;11.544;2022-08-19T13:05:32;19.40;99.90
14097;DHT22;7125;48.106;11.544;2022-08-19T13:08:00;19.50;99.90
14097;DHT22;7125;48.106;11.544;2022-08-19T13:10:30;19.70;99.90
14097;DHT22;7125;48.106;11.544;2022-08-19T13:13:01;19.90;99.90
14097;DHT22;7125;48.106;11.544;2022-08-19T13:15:29;20.20;99.90
14097;DHT22;7125;48.106;11.544;2022-08-19T13:17:58;20.10;99.90
14097;DHT22;7125;48.106;11.544;2022-08-19T13:20:25;20.20;99.90
14097;DHT22;7125;48.106;11.544;2022-08-19T13:22:54;20.10;99.90
14097;DHT22;7125;48.106;11.544;2022-08-19T13:25:22;20.20;99.90
14097;DHT22;7125;48.106;11.544;2022-08-19T13:27:51;20.40;99.90
14097;DHT22;7125;48.106;11.544;2022-08-19T13:30:19;20.30;99.90
14097;DHT22;7125;48.106;11.544;2022-08-19T13:33:06;20.30;99.90
14097;DHT22;7125;48.106;11.544;2022-08-19T13:35:42;20.30;99.90
14097;DHT22;7125;48.106;11.544;2022-08-19T13:38:10;20.40;99.90
14097;DHT22;7125;48.106;11.544;2022-08-19T13:40:39;20.50;99.90
14097;DHT22;7125;48.106;11.544;2022-08-19T13:43:06;20.50;99.90
14097;DHT22;7125;48.106;11.544;2022-08-19T13:45:33;20.50;99.90
14097;DHT22;7125;48.106;11.544;2022-08-19T13:48:02;20.50;99.90
14097;DHT22;7125;48.106;11.544;2022-08-19T13:50:35;20.50;99.90
14097;DHT22;7125;48.106;11.544;2022-08-19T13:53:02;20.50;99.90
14097;DHT22;7125;48.106;11.544;2022-08-19T13:55:29;20.40;99.90
14097;DHT22;7125;48.106;11.544;2022-08-19T13:57:58;20.20;99.90
14097;DHT22;7125;48.106;11.544;2022-08-19T14:00:31;20.20;99.90
14097;DHT22;7125;48.106;11.544;2022-08-19T14:02:59;20.10;99.90
14097;DHT22;7125;48.106;11.544;2022-08-19T14:05:27;20.00;99.90
14097;DHT22;7125;48.106;11.544;2022-08-19T14:07:56;20.00;99.90
14097;DHT22;7125;48.106;11.544;2022-08-19T14:10:24;19.90;99.90
14097;DHT22;7125;48.106;11.544;2022-08-19T14:12:53;19.80;99.90
14097;DHT22;7125;48.106;11.544;2022-08-19T14:15:21;19.90;99.90
14097;DHT22;7125;48.106;11.544;2022-08-19T14:17:48;20.00;99.90
14097;DHT22;7125;48.106;11.544;2022-08-19T14:20:16;20.00;99.90
14097;DHT22;7125;48.106;11.544;2022-08-19T14:22:44;20.00;99.90
14097;DHT22;7125;48.106;11.544;2022-08-19T14:25:15;19.90;99.90
14097;DHT22;7125;48.106;11.544;2022-08-19T14:27:42;19.90;99.90
14097;DHT22;7125;48.106;11.544;2022-08-19T14:30:11;19.90;99.90
14097;DHT22;7125;48.106;11.544;2022-08-19T14:32:40;20.00;99.90
14097;DHT22;7125;48.106;11.544;2022-08-19T14:35:09;20.10;99.90
14097;DHT22;7125;48.106;11.544;2022-08-19T14:37:38;20.20;99.90
14097;DHT22;7125;48.106;11.544;2022-08-19T14:40:06;20.20;99.90
14097;DHT22;7125;48.106;11.544;2022-08-19T14:42:35;20.20;99.90
14097;DHT22;7125;48.106;11.544;2022-08-19T14:45:03;20.10;99.90
14097;DHT22;7125;48.106;11.544;2022-08-19T14:47:31;19.90;99.90
14097;DHT22;7125;48.106;11.544;2022-08-19T14:49:58;19.90;99.90
14097;DHT22;7125;48.106;11.544;2022-08-19T14:52:25;19.80;99.90
14097;DHT22;7125;48.106;11.544;2022-08-19T14:54:53;19.80;99.90
14097;DHT22;7125;48.106;11.544;2022-08-19T14:57:19;19.70;99.90
14097;DHT22;7125;48.106;11.544;2022-08-19T14:59:47;19.60;99.90
14097;DHT22;7125;48.106;11.544;2022-08-19T15:02:14;19.50;99.90
14097;DHT22;7125;48.106;11.544;2022-08-19T15:04:41;19.50;99.90
14097;DHT22;7125;48.106;11.544;2022-08-19T15:07:09;19.50;99.90
14097;DHT22;7125;48.106;11.544;2022-08-19T15:09:35;19.50;99.90
14097;DHT22;7125;48.106;11.544;2022-08-19T15:12:03;19.60;99.90
14097;DHT22;7125;48.106;11.544;2022-08-19T15:14:30;19.60;99.90
14097;DHT22;7125;48.106;11.544;2022-08-19T15:17:02;19.70;99.90
14097;DHT22;7125;48.106;11.544;2022-08-19T15:19:30;19.80;99.90
14097;DHT22;7125;48.106;11.544;2022-08-19T15:21:57;19.80;99.90
14097;DHT22;7125;48.106;11.544;2022-08-19T15:24:24;19.80;99.90
14097;DHT22;7125;48.106;11.544;2022-08-19T15:26:51;19.80;99.90
14097;DHT22;7125;48.106;11.544;2022-08-19T15:29:19;19.70;99.90
14097;DHT22;7125;48.106;11.544;2022-08-19T15:31:46;19.70;99.90
14097;DHT22;7125;48.106;11.544;2022-08-19T15:34:14;19.60;99.90
14097;DHT22;7125;48.106;11.544;2022-08-19T15:36:40;19.60;99.90
14097;DHT22;7125;48.106;11.544;2022-08-19T15:39:08;19.60;99.90
14097;DHT22;7125;48.106;11.544;2022-08-19T15:41:35;19.70;99.90